sensor_id;sensor_type;location;lat;lon;timestamp;P1;durP1;ratioP1;P2;durP2;ratioP2
19635;SDS011;9965;50.774;7.188;2022-08-01T00:01:21;4.80;;;1.43;;
19635;SDS011;9965;50.774;7.188;2022-08-01T00:03:47;3.30;;;1.30;;
19635;SDS011;9965;50.774;7.188;2022-08-01T00:06:12;5.13;;;1.33;;
19635;SDS011;9965;50.774;7.188;2022-08-01T00:08:38;2.80;;;1.30;;
19635;SDS011;9965;50.774;7.188;2022-08-01T00:11:04;6.40;;;1.40;;
19635;SDS011;9965;50.774;7.188;2022-08-01T00:13:29;4.10;;;1.43;;
19635;SDS011;9965;50.774;7.188;2022-08-01T00:15:55;2.17;;;1.53;;
19635;SDS011;9965;50.774;7.188;2022-08-01T00:18:21;3.37;;;1.40;;
19635;SDS011;9965;50.774;7.188;2022-08-01T00:20:46;1.83;;;1.40;;
19635;SDS011;9965;50.774;7.188;2022-08-01T00:23:12;1.67;;;1.57;;
19635;SDS011;9965;50.774;7.188;2022-08-01T00:25:38;3.60;;;1.33;;
19635;SDS011;9965;50.774;7.188;2022-08-01T00:28:03;1.40;;;1.30;;
19635;SDS011;9965;50.774;7.188;2022-08-01T00:30:33;4.77;;;1.50;;
19635;SDS011;9965;50.774;7.188;2022-08-01T00:32:59;3.73;;;1.57;;
19635;SDS011;9965;50.774;7.188;2022-08-01T00:35:25;3.23;;;1.60;;
19635;SDS011;9965;50.774;7.188;2022-08-01T00:37:51;3.17;;;1.60;;
19635;SDS011;9965;50.774;7.188;2022-08-01T00:40:16;1.40;;;1.30;;
19635;SDS011;9965;50.774;7.188;2022-08-01T00:42:42;1.30;;;1.20;;
19635;SDS011;9965;50.774;7.188;2022-08-01T00:45:08;2.17;;;1.53;;
19635;SDS011;9965;50.774;7.188;2022-08-01T00:47:34;1.40;;;1.30;;
19635;SDS011;9965;50.774;7.188;2022-08-01T00:49:59;2.10;;;1.60;;
19635;SDS011;9965;50.774;7.188;2022-08-01T00:52:25;2.17;;;1.60;;
19635;SDS011;9965;50.774;7.188;2022-08-01T00:54:51;2.27;;;1.27;;
19635;SDS011;9965;50.774;7.188;2022-08-01T00:57:16;3.30;;;1.47;;
19635;SDS011;9965;50.774;7.188;2022-08-01T00:59:42;6.47;;;1.53;;
19635;SDS011;9965;50.774;7.188;2022-08-01T01:02:08;6.03;;;1.80;;
19635;SDS011;9965;50.774;7.188;2022-08-01T01:04:34;2.10;;;1.30;;
19635;SDS011;9965;50.774;7.188;2022-08-01T01:07:09;3.07;;;1.43;;
19635;SDS011;9965;50.774;7.188;2022-08-01T01:12:47;1.60;;;1.50;;
19635;SDS011;9965;50.774;7.188;2022-08-01T01:18:25;2.57;;;1.70;;
19635;SDS011;9965;50.774;7.188;2022-08-01T01:31:43;4.17;;;1.33;;
19635;SDS011;9965;50.774;7.188;2022-08-01T01:34:13;3.83;;;1.60;;
19635;SDS011;9965;50.774;7.188;2022-08-01T01:36:40;2.87;;;1.63;;
19635;SDS011;9965;50.774;7.188;2022-08-01T01:39:08;4.17;;;1.67;;
19635;SDS011;9965;50.774;7.188;2022-08-01T01:41:35;1.87;;;1.40;;
19635;SDS011;9965;50.774;7.188;2022-08-01T01:44:03;3.03;;;1.47;;
19635;SDS011;9965;50.774;7.188;2022-08-01T01:46:30;4.27;;;1.67;;
19635;SDS011;9965;50.774;7.188;2022-08-01T01:48:57;2.07;;;1.57;;
19635;SDS011;9965;50.774;7.188;2022-08-01T01:51:24;4.23;;;2.10;;
19635;SDS011;9965;50.774;7.188;2022-08-01T01:53:52;4.07;;;2.43;;
19635;SDS011;9965;50.774;7.188;2022-08-01T01:56:19;3.33;;;1.97;;
19635;SDS011;9965;50.774;7.188;2022-08-01T01:58:48;3.00;;;2.10;;
19635;SDS011;9965;50.774;7.188;2022-08-01T02:01:17;2.63;;;2.30;;
19635;SDS011;9965;50.774;7.188;2022-08-01T02:03:44;3.07;;;2.50;;
19635;SDS011;9965;50.774;7.188;2022-08-01T02:06:14;4.67;;;2.17;;
19635;SDS011;9965;50.774;7.188;2022-08-01T02:08:41;4.47;;;2.43;;
19635;SDS011;9965;50.774;7.188;2022-08-01T02:11:08;3.57;;;2.27;;
19635;SDS011;9965;50.774;7.188;2022-08-01T02:13:43;5.17;;;2.10;;
19635;SDS011;9965;50.774;7.188;2022-08-01T02:16:17;4.23;;;2.60;;
19635;SDS011;9965;50.774;7.188;2022-08-01T02:18:44;2.97;;;2.30;;
19635;SDS011;9965;50.774;7.188;2022-08-01T02:21:11;3.73;;;2.20;;
19635;SDS011;9965;50.774;7.188;2022-08-01T02:23:41;2.90;;;1.93;;
19635;SDS011;9965;50.774;7.188;2022-08-01T02:26:09;4.83;;;2.17;;
19635;SDS011;9965;50.774;7.188;2022-08-01T02:28:58;5.50;;;2.30;;
19635;SDS011;9965;50.774;7.188;2022-08-01T02:31:27;4.73;;;2.30;;
19635;SDS011;9965;50.774;7.188;2022-08-01T02:34:00;3.63;;;2.13;;
19635;SDS011;9965;50.774;7.188;2022-08-01T02:36:30;2.87;;;2.20;;
19635;SDS011;9965;50.774;7.188;2022-08-01T02:38:59;4.37;;;2.17;;
19635;SDS011;9965;50.774;7.188;2022-08-01T02:41:28;7.37;;;2.23;;
19635;SDS011;9965;50.774;7.188;2022-08-01T02:43:56;4.50;;;2.20;;
19635;SDS011;9965;50.774;7.188;2022-08-01T02:46:33;3.20;;;2.30;;
19635;SDS011;9965;50.774;7.188;2022-08-01T02:49:03;3.00;;;2.00;;
19635;SDS011;9965;50.774;7.188;2022-08-01T02:51:32;4.33;;;2.50;;
19635;SDS011;9965;50.774;7.188;2022-08-01T02:54:00;3.07;;;2.40;;
19635;SDS011;9965;50.774;7.188;2022-08-01T02:56:28;2.43;;;1.77;;
19635;SDS011;9965;50.774;7.188;2022-08-01T02:59:01;5.37;;;2.30;;
19635;SDS011;9965;50.774;7.188;2022-08-01T03:01:28;3.30;;;3.00;;
19635;SDS011;9965;50.774;7.188;2022-08-01T03:03:56;5.53;;;2.50;;
19635;SDS011;9965;50.774;7.188;2022-08-01T03:06:22;2.73;;;2.40;;
19635;SDS011;9965;50.774;7.188;2022-08-01T03:08:49;3.80;;;2.40;;
19635;SDS011;9965;50.774;7.188;2022-08-01T03:11:16;2.87;;;2.37;;
19635;SDS011;9965;50.774;7.188;2022-08-01T03:13:43;5.60;;;2.83;;
19635;SDS011;9965;50.774;7.188;2022-08-01T03:16:12;5.50;;;2.07;;
19635;SDS011;9965;50.774;7.188;2022-08-01T03:18:40;4.17;;;2.50;;
19635;SDS011;9965;50.774;7.188;2022-08-01T03:21:10;3.33;;;2.63;;
19635;SDS011;9965;50.774;7.188;2022-08-01T03:23:38;4.17;;;2.47;;
19635;SDS011;9965;50.774;7.188;2022-08-01T03:26:06;4.67;;;2.50;;
19635;SDS011;9965;50.774;7.188;2022-08-01T03:28:33;5.87;;;2.80;;
19635;SDS011;9965;50.774;7.188;2022-08-01T03:31:00;3.77;;;2.70;;
19635;SDS011;9965;50.774;7.188;2022-08-01T03:33:27;3.53;;;2.40;;
19635;SDS011;9965;50.774;7.188;2022-08-01T03:35:54;3.60;;;2.40;;
19635;SDS011;9965;50.774;7.188;2022-08-01T03:38:23;5.23;;;2.20;;
19635;SDS011;9965;50.774;7.188;2022-08-01T03:41:06;5.87;;;2.50;;
19635;SDS011;9965;50.774;7.188;2022-08-01T03:44:37;4.73;;;2.57;;
19635;SDS011;9965;50.774;7.188;2022-08-01T03:46:36;6.60;;;2.63;;
19635;SDS011;9965;50.774;7.188;2022-08-01T03:49:10;4.03;;;2.77;;
19635;SDS011;9965;50.774;7.188;2022-08-01T03:51:40;4.47;;;2.47;;
19635;SDS011;9965;50.774;7.188;2022-08-01T03:54:05;3.43;;;2.70;;
19635;SDS011;9965;50.774;7.188;2022-08-01T03:56:33;4.83;;;2.90;;
19635;SDS011;9965;50.774;7.188;2022-08-01T03:59:01;3.33;;;2.77;;
19635;SDS011;9965;50.774;7.188;2022-08-01T04:01:28;3.40;;;2.53;;
19635;SDS011;9965;50.774;7.188;2022-08-01T04:03:58;3.87;;;2.80;;
19635;SDS011;9965;50.774;7.188;2022-08-01T04:06:24;3.83;;;3.17;;
19635;SDS011;9965;50.774;7.188;2022-08-01T04:08:50;3.40;;;2.87;;
19635;SDS011;9965;50.774;7.188;2022-08-01T04:11:23;6.90;;;3.00;;
19635;SDS011;9965;50.774;7.188;2022-08-01T04:13:50;5.60;;;3.20;;
19635;SDS011;9965;50.774;7.188;2022-08-01T04:16:18;6.53;;;3.17;;
19635;SDS011;9965;50.774;7.188;2022-08-01T04:18:44;6.80;;;3.50;;
19635;SDS011;9965;50.774;7.188;2022-08-01T04:21:09;6.30;;;3.20;;
19635;SDS011;9965;50.774;7.188;2022-08-01T04:23:35;7.47;;;3.40;;
19635;SDS011;9965;50.774;7.188;2022-08-01T04:26:05;4.50;;;3.40;;
19635;SDS011;9965;50.774;7.188;2022-08-01T04:28:33;5.77;;;3.30;;
19635;SDS011;9965;50.774;7.188;2022-08-01T04:31:00;5.43;;;3.77;;
19635;SDS011;9965;50.774;7.188;2022-08-01T04:33:28;7.03;;;3.43;;
19635;SDS011;9965;50.774;7.188;2022-08-01T04:35:55;6.83;;;3.50;;
19635;SDS011;9965;50.774;7.188;2022-08-01T04:38:23;6.33;;;3.33;;
19635;SDS011;9965;50.774;7.188;2022-08-01T04:40:52;5.43;;;3.37;;
19635;SDS011;9965;50.774;7.188;2022-08-01T04:43:18;4.67;;;3.20;;
19635;SDS011;9965;50.774;7.188;2022-08-01T04:45:44;7.97;;;3.90;;
19635;SDS011;9965;50.774;7.188;2022-08-01T04:48:12;8.93;;;3.80;;
19635;SDS011;9965;50.774;7.188;2022-08-01T04:50:40;11.23;;;4.03;;
19635;SDS011;9965;50.774;7.188;2022-08-01T04:53:12;6.83;;;4.57;;
19635;SDS011;9965;50.774;7.188;2022-08-01T04:55:42;9.17;;;4.47;;
19635;SDS011;9965;50.774;7.188;2022-08-01T04:58:09;7.63;;;4.13;;
19635;SDS011;9965;50.774;7.188;2022-08-01T05:00:35;5.20;;;4.10;;
19635;SDS011;9965;50.774;7.188;2022-08-01T05:03:01;7.40;;;4.90;;
19635;SDS011;9965;50.774;7.188;2022-08-01T05:05:27;8.70;;;4.83;;
19635;SDS011;9965;50.774;7.188;2022-08-01T05:07:53;9.77;;;4.40;;
19635;SDS011;9965;50.774;7.188;2022-08-01T05:10:18;6.03;;;4.73;;
19635;SDS011;9965;50.774;7.188;2022-08-01T05:12:44;5.93;;;4.40;;
19635;SDS011;9965;50.774;7.188;2022-08-01T05:15:11;10.90;;;4.80;;
19635;SDS011;9965;50.774;7.188;2022-08-01T05:17:37;10.77;;;5.00;;
19635;SDS011;9965;50.774;7.188;2022-08-01T05:20:02;10.47;;;5.47;;
19635;SDS011;9965;50.774;7.188;2022-08-01T05:22:28;9.07;;;5.07;;
19635;SDS011;9965;50.774;7.188;2022-08-01T05:24:54;11.53;;;4.77;;
19635;SDS011;9965;50.774;7.188;2022-08-01T05:27:20;6.83;;;4.73;;
19635;SDS011;9965;50.774;7.188;2022-08-01T05:29:45;8.13;;;5.27;;
19635;SDS011;9965;50.774;7.188;2022-08-01T05:32:11;8.67;;;5.47;;
19635;SDS011;9965;50.774;7.188;2022-08-01T05:34:37;7.63;;;5.80;;
19635;SDS011;9965;50.774;7.188;2022-08-01T05:37:02;11.17;;;5.60;;
19635;SDS011;9965;50.774;7.188;2022-08-01T05:39:28;9.87;;;5.70;;
19635;SDS011;9965;50.774;7.188;2022-08-01T05:41:54;8.97;;;5.17;;
19635;SDS011;9965;50.774;7.188;2022-08-01T05:44:19;8.17;;;5.23;;
19635;SDS011;9965;50.774;7.188;2022-08-01T05:46:45;7.67;;;5.90;;
19635;SDS011;9965;50.774;7.188;2022-08-01T05:49:11;9.27;;;5.80;;
19635;SDS011;9965;50.774;7.188;2022-08-01T05:51:37;15.10;;;8.60;;
19635;SDS011;9965;50.774;7.188;2022-08-01T05:54:02;12.77;;;7.97;;
19635;SDS011;9965;50.774;7.188;2022-08-01T05:56:28;13.20;;;8.57;;
19635;SDS011;9965;50.774;7.188;2022-08-01T05:58:54;14.00;;;7.43;;
19635;SDS011;9965;50.774;7.188;2022-08-01T06:01:19;18.77;;;8.00;;
19635;SDS011;9965;50.774;7.188;2022-08-01T06:03:46;14.77;;;7.80;;
19635;SDS011;9965;50.774;7.188;2022-08-01T06:06:11;11.83;;;7.63;;
19635;SDS011;9965;50.774;7.188;2022-08-01T06:08:39;10.50;;;7.40;;
19635;SDS011;9965;50.774;7.188;2022-08-01T06:11:05;13.47;;;8.13;;
19635;SDS011;9965;50.774;7.188;2022-08-01T06:13:31;14.30;;;7.97;;
19635;SDS011;9965;50.774;7.188;2022-08-01T06:15:56;12.27;;;7.33;;
19635;SDS011;9965;50.774;7.188;2022-08-01T06:18:22;14.07;;;7.50;;
19635;SDS011;9965;50.774;7.188;2022-08-01T06:20:48;13.10;;;8.07;;
19635;SDS011;9965;50.774;7.188;2022-08-01T06:23:14;14.23;;;9.27;;
19635;SDS011;9965;50.774;7.188;2022-08-01T06:25:41;10.07;;;8.60;;
19635;SDS011;9965;50.774;7.188;2022-08-01T06:28:07;12.53;;;8.40;;
19635;SDS011;9965;50.774;7.188;2022-08-01T06:30:33;11.17;;;8.83;;
19635;SDS011;9965;50.774;7.188;2022-08-01T06:32:59;19.67;;;8.50;;
19635;SDS011;9965;50.774;7.188;2022-08-01T06:35:25;13.47;;;8.43;;
19635;SDS011;9965;50.774;7.188;2022-08-01T06:37:54;13.30;;;8.63;;
19635;SDS011;9965;50.774;7.188;2022-08-01T06:40:21;12.57;;;8.73;;
19635;SDS011;9965;50.774;7.188;2022-08-01T06:42:46;13.50;;;8.77;;
19635;SDS011;9965;50.774;7.188;2022-08-01T06:45:13;14.37;;;8.50;;
19635;SDS011;9965;50.774;7.188;2022-08-01T06:47:39;13.90;;;9.30;;
19635;SDS011;9965;50.774;7.188;2022-08-01T06:50:06;16.27;;;9.10;;
19635;SDS011;9965;50.774;7.188;2022-08-01T06:52:33;14.43;;;10.00;;
19635;SDS011;9965;50.774;7.188;2022-08-01T06:55:00;15.93;;;9.47;;
19635;SDS011;9965;50.774;7.188;2022-08-01T06:57:26;12.97;;;9.40;;
19635;SDS011;9965;50.774;7.188;2022-08-01T06:59:52;10.43;;;8.87;;
19635;SDS011;9965;50.774;7.188;2022-08-01T07:02:18;11.03;;;8.17;;
19635;SDS011;9965;50.774;7.188;2022-08-01T07:04:43;16.57;;;8.90;;
19635;SDS011;9965;50.774;7.188;2022-08-01T07:07:09;9.77;;;7.97;;
19635;SDS011;9965;50.774;7.188;2022-08-01T07:09:34;11.00;;;6.80;;
19635;SDS011;9965;50.774;7.188;2022-08-01T07:12:00;9.90;;;7.07;;
19635;SDS011;9965;50.774;7.188;2022-08-01T07:14:26;8.27;;;6.30;;
19635;SDS011;9965;50.774;7.188;2022-08-01T07:16:51;8.57;;;6.93;;
19635;SDS011;9965;50.774;7.188;2022-08-01T07:19:17;9.97;;;6.97;;
19635;SDS011;9965;50.774;7.188;2022-08-01T07:21:43;11.17;;;6.33;;
19635;SDS011;9965;50.774;7.188;2022-08-01T07:24:10;11.53;;;7.17;;
19635;SDS011;9965;50.774;7.188;2022-08-01T07:26:38;8.27;;;7.07;;
19635;SDS011;9965;50.774;7.188;2022-08-01T07:29:08;12.97;;;7.17;;
19635;SDS011;9965;50.774;7.188;2022-08-01T07:31:33;7.70;;;6.63;;
19635;SDS011;9965;50.774;7.188;2022-08-01T07:33:59;11.60;;;6.97;;
19635;SDS011;9965;50.774;7.188;2022-08-01T07:36:24;11.17;;;7.50;;
19635;SDS011;9965;50.774;7.188;2022-08-01T07:38:50;9.73;;;7.90;;
19635;SDS011;9965;50.774;7.188;2022-08-01T07:41:16;11.80;;;7.53;;
19635;SDS011;9965;50.774;7.188;2022-08-01T07:43:42;8.80;;;6.90;;
19635;SDS011;9965;50.774;7.188;2022-08-01T07:46:07;8.23;;;6.43;;
19635;SDS011;9965;50.774;7.188;2022-08-01T07:48:33;11.03;;;7.70;;
19635;SDS011;9965;50.774;7.188;2022-08-01T07:50:59;12.47;;;8.13;;
19635;SDS011;9965;50.774;7.188;2022-08-01T07:53:24;10.33;;;7.30;;
19635;SDS011;9965;50.774;7.188;2022-08-01T07:55:50;15.73;;;7.80;;
19635;SDS011;9965;50.774;7.188;2022-08-01T07:58:16;9.50;;;6.70;;
19635;SDS011;9965;50.774;7.188;2022-08-01T08:00:42;12.57;;;7.10;;
19635;SDS011;9965;50.774;7.188;2022-08-01T08:03:08;10.17;;;6.10;;
19635;SDS011;9965;50.774;7.188;2022-08-01T08:05:34;8.97;;;7.07;;
19635;SDS011;9965;50.774;7.188;2022-08-01T08:08:02;12.77;;;6.97;;
19635;SDS011;9965;50.774;7.188;2022-08-01T08:10:30;8.40;;;6.77;;
19635;SDS011;9965;50.774;7.188;2022-08-01T08:12:55;9.73;;;7.23;;
19635;SDS011;9965;50.774;7.188;2022-08-01T08:15:22;11.27;;;6.40;;
19635;SDS011;9965;50.774;7.188;2022-08-01T08:17:48;7.80;;;6.80;;
19635;SDS011;9965;50.774;7.188;2022-08-01T08:20:13;7.80;;;6.73;;
19635;SDS011;9965;50.774;7.188;2022-08-01T08:22:39;8.93;;;7.93;;
19635;SDS011;9965;50.774;7.188;2022-08-01T08:25:05;9.67;;;7.27;;
19635;SDS011;9965;50.774;7.188;2022-08-01T08:27:32;10.23;;;6.87;;
19635;SDS011;9965;50.774;7.188;2022-08-01T08:29:57;9.10;;;6.60;;
19635;SDS011;9965;50.774;7.188;2022-08-01T08:32:23;14.00;;;7.47;;
19635;SDS011;9965;50.774;7.188;2022-08-01T08:34:49;14.07;;;6.57;;
19635;SDS011;9965;50.774;7.188;2022-08-01T08:37:14;10.80;;;6.93;;
19635;SDS011;9965;50.774;7.188;2022-08-01T08:39:40;12.63;;;7.20;;
19635;SDS011;9965;50.774;7.188;2022-08-01T08:42:07;6.60;;;5.90;;
19635;SDS011;9965;50.774;7.188;2022-08-01T08:44:33;7.20;;;6.50;;
19635;SDS011;9965;50.774;7.188;2022-08-01T08:47:00;9.53;;;6.60;;
19635;SDS011;9965;50.774;7.188;2022-08-01T08:49:30;11.13;;;8.03;;
19635;SDS011;9965;50.774;7.188;2022-08-01T08:51:58;9.87;;;7.77;;
19635;SDS011;9965;50.774;7.188;2022-08-01T08:54:25;9.73;;;8.80;;
19635;SDS011;9965;50.774;7.188;2022-08-01T08:56:51;14.40;;;10.73;;
19635;SDS011;9965;50.774;7.188;2022-08-01T08:59:18;15.97;;;12.20;;
19635;SDS011;9965;50.774;7.188;2022-08-01T09:01:45;13.63;;;11.13;;
19635;SDS011;9965;50.774;7.188;2022-08-01T09:04:11;14.60;;;11.33;;
19635;SDS011;9965;50.774;7.188;2022-08-01T09:06:37;14.33;;;10.13;;
19635;SDS011;9965;50.774;7.188;2022-08-01T09:09:04;11.00;;;9.00;;
19635;SDS011;9965;50.774;7.188;2022-08-01T09:11:30;14.37;;;10.27;;
19635;SDS011;9965;50.774;7.188;2022-08-01T09:14:04;13.77;;;8.80;;
19635;SDS011;9965;50.774;7.188;2022-08-01T09:16:37;9.20;;;8.10;;
19635;SDS011;9965;50.774;7.188;2022-08-01T09:19:16;10.47;;;8.97;;
19635;SDS011;9965;50.774;7.188;2022-08-01T09:21:56;11.03;;;9.20;;
19635;SDS011;9965;50.774;7.188;2022-08-01T09:24:24;12.03;;;8.87;;
19635;SDS011;9965;50.774;7.188;2022-08-01T09:26:51;12.07;;;9.07;;
19635;SDS011;9965;50.774;7.188;2022-08-01T09:29:20;11.97;;;8.63;;
19635;SDS011;9965;50.774;7.188;2022-08-01T09:31:51;12.40;;;10.40;;
19635;SDS011;9965;50.774;7.188;2022-08-01T09:34:24;9.80;;;8.70;;
19635;SDS011;9965;50.774;7.188;2022-08-01T09:36:52;11.33;;;8.27;;
19635;SDS011;9965;50.774;7.188;2022-08-01T09:39:22;10.30;;;8.00;;
19635;SDS011;9965;50.774;7.188;2022-08-01T09:41:53;10.70;;;8.60;;
19635;SDS011;9965;50.774;7.188;2022-08-01T09:44:19;14.07;;;7.27;;
19635;SDS011;9965;50.774;7.188;2022-08-01T09:47:05;13.50;;;8.03;;
19635;SDS011;9965;50.774;7.188;2022-08-01T09:49:32;8.37;;;7.17;;
19635;SDS011;9965;50.774;7.188;2022-08-01T09:52:21;7.60;;;6.97;;
19635;SDS011;9965;50.774;7.188;2022-08-01T09:55:06;9.97;;;7.63;;
19635;SDS011;9965;50.774;7.188;2022-08-01T09:57:32;10.17;;;7.93;;
19635;SDS011;9965;50.774;7.188;2022-08-01T09:59:59;8.87;;;7.20;;
19635;SDS011;9965;50.774;7.188;2022-08-01T10:02:31;10.50;;;7.40;;
19635;SDS011;9965;50.774;7.188;2022-08-01T10:05:05;7.63;;;6.10;;
19635;SDS011;9965;50.774;7.188;2022-08-01T10:07:32;8.77;;;5.73;;
19635;SDS011;9965;50.774;7.188;2022-08-01T10:10:20;7.73;;;5.93;;
19635;SDS011;9965;50.774;7.188;2022-08-01T10:12:44;8.10;;;6.47;;
19635;SDS011;9965;50.774;7.188;2022-08-01T10:15:15;7.20;;;5.80;;
19635;SDS011;9965;50.774;7.188;2022-08-01T10:17:46;7.90;;;6.57;;
19635;SDS011;9965;50.774;7.188;2022-08-01T10:20:19;7.32;;;5.05;;
19635;SDS011;9965;50.774;7.188;2022-08-01T10:22:47;8.55;;;5.65;;
19635;SDS011;9965;50.774;7.188;2022-08-01T10:25:14;6.10;;;5.50;;
19635;SDS011;9965;50.774;7.188;2022-08-01T10:27:43;6.35;;;5.22;;
19635;SDS011;9965;50.774;7.188;2022-08-01T10:30:10;14.07;;;4.88;;
19635;SDS011;9965;50.774;7.188;2022-08-01T10:32:37;5.45;;;4.40;;
19635;SDS011;9965;50.774;7.188;2022-08-01T10:35:06;8.38;;;5.28;;
19635;SDS011;9965;50.774;7.188;2022-08-01T10:37:33;6.73;;;5.00;;
19635;SDS011;9965;50.774;7.188;2022-08-01T10:40:00;6.60;;;5.30;;
19635;SDS011;9965;50.774;7.188;2022-08-01T10:42:26;8.57;;;4.67;;
19635;SDS011;9965;50.774;7.188;2022-08-01T10:44:52;7.85;;;5.40;;
19635;SDS011;9965;50.774;7.188;2022-08-01T10:47:30;6.68;;;4.80;;
19635;SDS011;9965;50.774;7.188;2022-08-01T10:53:09;5.68;;;4.22;;
19635;SDS011;9965;50.774;7.188;2022-08-01T10:58:25;7.13;;;4.55;;
19635;SDS011;9965;50.774;7.188;2022-08-01T11:03:40;5.10;;;4.32;;
19635;SDS011;9965;50.774;7.188;2022-08-01T11:06:14;5.32;;;3.92;;
19635;SDS011;9965;50.774;7.188;2022-08-01T11:08:51;4.43;;;4.03;;
19635;SDS011;9965;50.774;7.188;2022-08-01T11:11:19;4.78;;;4.28;;
19635;SDS011;9965;50.774;7.188;2022-08-01T11:16:33;5.78;;;3.97;;
19635;SDS011;9965;50.774;7.188;2022-08-01T11:19:00;5.47;;;3.78;;
19635;SDS011;9965;50.774;7.188;2022-08-01T11:32:33;4.65;;;3.90;;
19635;SDS011;9965;50.774;7.188;2022-08-01T11:35:12;4.17;;;3.30;;
19635;SDS011;9965;50.774;7.188;2022-08-01T11:37:38;3.65;;;3.35;;
19635;SDS011;9965;50.774;7.188;2022-08-01T11:40:23;5.30;;;3.60;;
19635;SDS011;9965;50.774;7.188;2022-08-01T11:45:53;3.95;;;3.60;;
19635;SDS011;9965;50.774;7.188;2022-08-01T11:48:21;6.15;;;3.45;;
19635;SDS011;9965;50.774;7.188;2022-08-01T11:50:51;4.03;;;3.60;;
19635;SDS011;9965;50.774;7.188;2022-08-01T11:53:18;3.97;;;3.67;;
19635;SDS011;9965;50.774;7.188;2022-08-01T11:55:48;4.78;;;3.47;;
19635;SDS011;9965;50.774;7.188;2022-08-01T11:58:16;7.60;;;4.15;;
19635;SDS011;9965;50.774;7.188;2022-08-01T12:00:50;5.03;;;4.60;;
19635;SDS011;9965;50.774;7.188;2022-08-01T12:03:17;4.53;;;3.58;;
19635;SDS011;9965;50.774;7.188;2022-08-01T12:05:53;6.25;;;4.30;;
19635;SDS011;9965;50.774;7.188;2022-08-01T12:08:52;5.40;;;4.47;;
19635;SDS011;9965;50.774;7.188;2022-08-01T12:11:10;7.10;;;4.00;;
19635;SDS011;9965;50.774;7.188;2022-08-01T12:13:42;3.60;;;3.30;;
19635;SDS011;9965;50.774;7.188;2022-08-01T12:16:09;6.70;;;3.60;;
19635;SDS011;9965;50.774;7.188;2022-08-01T12:18:40;4.68;;;3.70;;
19635;SDS011;9965;50.774;7.188;2022-08-01T12:21:07;3.50;;;3.20;;
19635;SDS011;9965;50.774;7.188;2022-08-01T12:23:33;3.58;;;3.28;;
19635;SDS011;9965;50.774;7.188;2022-08-01T12:25:58;3.63;;;3.33;;
19635;SDS011;9965;50.774;7.188;2022-08-01T12:28:25;3.45;;;3.15;;
19635;SDS011;9965;50.774;7.188;2022-08-01T12:30:51;5.57;;;3.38;;
19635;SDS011;9965;50.774;7.188;2022-08-01T12:33:18;3.53;;;3.22;;
19635;SDS011;9965;50.774;7.188;2022-08-01T12:35:44;4.35;;;3.35;;
19635;SDS011;9965;50.774;7.188;2022-08-01T12:38:14;3.50;;;3.20;;
19635;SDS011;9965;50.774;7.188;2022-08-01T12:40:42;4.68;;;3.67;;
19635;SDS011;9965;50.774;7.188;2022-08-01T12:43:09;9.30;;;3.92;;
19635;SDS011;9965;50.774;7.188;2022-08-01T12:45:41;4.07;;;3.78;;
19635;SDS011;9965;50.774;7.188;2022-08-01T12:48:11;4.57;;;3.60;;
19635;SDS011;9965;50.774;7.188;2022-08-01T12:50:39;4.28;;;3.88;;
19635;SDS011;9965;50.774;7.188;2022-08-01T12:53:10;5.13;;;3.58;;
19635;SDS011;9965;50.774;7.188;2022-08-01T12:55:49;3.22;;;2.92;;
19635;SDS011;9965;50.774;7.188;2022-08-01T12:58:19;3.63;;;3.15;;
19635;SDS011;9965;50.774;7.188;2022-08-01T13:00:47;6.43;;;3.15;;
19635;SDS011;9965;50.774;7.188;2022-08-01T13:03:18;4.93;;;3.35;;
19635;SDS011;9965;50.774;7.188;2022-08-01T13:05:49;4.43;;;3.33;;
19635;SDS011;9965;50.774;7.188;2022-08-01T13:08:20;5.00;;;3.38;;
19635;SDS011;9965;50.774;7.188;2022-08-01T13:10:48;4.72;;;3.65;;
19635;SDS011;9965;50.774;7.188;2022-08-01T13:13:16;5.50;;;3.10;;
19635;SDS011;9965;50.774;7.188;2022-08-01T13:15:43;4.20;;;2.70;;
19635;SDS011;9965;50.774;7.188;2022-08-01T13:18:21;3.47;;;2.90;;
19635;SDS011;9965;50.774;7.188;2022-08-01T13:21:13;3.80;;;2.67;;
19635;SDS011;9965;50.774;7.188;2022-08-01T13:23:41;4.32;;;2.92;;
19635;SDS011;9965;50.774;7.188;2022-08-01T13:26:43;6.88;;;3.03;;
19635;SDS011;9965;50.774;7.188;2022-08-01T13:29:15;6.22;;;2.70;;
19635;SDS011;9965;50.774;7.188;2022-08-01T13:31:42;6.18;;;3.13;;
19635;SDS011;9965;50.774;7.188;2022-08-01T13:34:08;3.58;;;3.08;;
19635;SDS011;9965;50.774;7.188;2022-08-01T13:36:34;4.05;;;2.72;;
19635;SDS011;9965;50.774;7.188;2022-08-01T13:39:01;3.40;;;2.75;;
19635;SDS011;9965;50.774;7.188;2022-08-01T13:41:45;6.10;;;3.15;;
19635;SDS011;9965;50.774;7.188;2022-08-01T13:44:11;3.88;;;3.53;;
19635;SDS011;9965;50.774;7.188;2022-08-01T13:46:38;3.33;;;3.00;;
19635;SDS011;9965;50.774;7.188;2022-08-01T13:49:04;6.82;;;4.10;;
19635;SDS011;9965;50.774;7.188;2022-08-01T13:51:31;10.48;;;4.28;;
19635;SDS011;9965;50.774;7.188;2022-08-01T13:53:57;6.20;;;3.50;;
19635;SDS011;9965;50.774;7.188;2022-08-01T13:56:23;6.18;;;3.88;;
19635;SDS011;9965;50.774;7.188;2022-08-01T13:58:49;4.22;;;3.60;;
19635;SDS011;9965;50.774;7.188;2022-08-01T14:01:16;5.10;;;3.33;;
19635;SDS011;9965;50.774;7.188;2022-08-01T14:03:41;6.20;;;3.30;;
19635;SDS011;9965;50.774;7.188;2022-08-01T14:06:07;5.85;;;4.10;;
19635;SDS011;9965;50.774;7.188;2022-08-01T14:08:33;4.30;;;3.30;;
19635;SDS011;9965;50.774;7.188;2022-08-01T14:10:59;5.55;;;3.42;;
19635;SDS011;9965;50.774;7.188;2022-08-01T14:13:25;21.85;;;5.10;;
19635;SDS011;9965;50.774;7.188;2022-08-01T14:15:51;5.07;;;3.97;;
19635;SDS011;9965;50.774;7.188;2022-08-01T14:18:17;7.53;;;3.83;;
19635;SDS011;9965;50.774;7.188;2022-08-01T14:20:43;7.65;;;3.60;;
19635;SDS011;9965;50.774;7.188;2022-08-01T14:23:08;10.15;;;4.07;;
19635;SDS011;9965;50.774;7.188;2022-08-01T14:25:35;7.28;;;3.65;;
19635;SDS011;9965;50.774;7.188;2022-08-01T14:28:05;3.17;;;2.88;;
19635;SDS011;9965;50.774;7.188;2022-08-01T14:30:31;3.85;;;2.95;;
19635;SDS011;9965;50.774;7.188;2022-08-01T14:32:58;5.70;;;2.65;;
19635;SDS011;9965;50.774;7.188;2022-08-01T14:35:25;6.85;;;2.90;;
19635;SDS011;9965;50.774;7.188;2022-08-01T14:37:51;9.63;;;3.05;;
19635;SDS011;9965;50.774;7.188;2022-08-01T14:40:17;5.05;;;2.83;;
19635;SDS011;9965;50.774;7.188;2022-08-01T14:42:43;4.97;;;2.60;;
19635;SDS011;9965;50.774;7.188;2022-08-01T14:45:09;4.78;;;2.72;;
19635;SDS011;9965;50.774;7.188;2022-08-01T14:47:37;3.90;;;2.30;;
19635;SDS011;9965;50.774;7.188;2022-08-01T14:50:04;4.05;;;2.38;;
19635;SDS011;9965;50.774;7.188;2022-08-01T14:52:32;2.92;;;2.50;;
19635;SDS011;9965;50.774;7.188;2022-08-01T14:54:58;7.40;;;2.25;;
19635;SDS011;9965;50.774;7.188;2022-08-01T14:57:24;3.88;;;2.70;;
19635;SDS011;9965;50.774;7.188;2022-08-01T14:59:50;5.38;;;2.20;;
19635;SDS011;9965;50.774;7.188;2022-08-01T15:02:15;2.60;;;2.38;;
19635;SDS011;9965;50.774;7.188;2022-08-01T15:04:46;4.47;;;2.22;;
19635;SDS011;9965;50.774;7.188;2022-08-01T15:07:13;5.03;;;2.17;;
19635;SDS011;9965;50.774;7.188;2022-08-01T15:09:39;4.40;;;2.17;;
19635;SDS011;9965;50.774;7.188;2022-08-01T15:12:05;3.95;;;1.90;;
19635;SDS011;9965;50.774;7.188;2022-08-01T15:14:31;2.33;;;1.63;;
19635;SDS011;9965;50.774;7.188;2022-08-01T15:17:16;3.47;;;1.95;;
19635;SDS011;9965;50.774;7.188;2022-08-01T15:19:47;6.47;;;1.95;;
19635;SDS011;9965;50.774;7.188;2022-08-01T15:22:14;8.25;;;2.63;;
19635;SDS011;9965;50.774;7.188;2022-08-01T15:24:40;9.13;;;2.35;;
19635;SDS011;9965;50.774;7.188;2022-08-01T15:27:07;2.50;;;2.08;;
19635;SDS011;9965;50.774;7.188;2022-08-01T15:29:33;4.57;;;1.80;;
19635;SDS011;9965;50.774;7.188;2022-08-01T15:31:59;4.32;;;1.83;;
19635;SDS011;9965;50.774;7.188;2022-08-01T15:34:26;2.05;;;1.77;;
19635;SDS011;9965;50.774;7.188;2022-08-01T15:36:51;2.10;;;1.55;;
19635;SDS011;9965;50.774;7.188;2022-08-01T15:39:17;4.40;;;1.90;;
19635;SDS011;9965;50.774;7.188;2022-08-01T15:41:42;5.35;;;1.70;;
19635;SDS011;9965;50.774;7.188;2022-08-01T15:44:08;2.22;;;1.60;;
19635;SDS011;9965;50.774;7.188;2022-08-01T15:46:34;3.42;;;1.60;;